createdAt,value
2019-04-03T00:00:34.537Z,59.39
2019-04-03T00:01:34.355Z,59.32
2019-04-03T00:02:34.337Z,59.32
2019-04-03T00:03:34.200Z,59.19
2019-04-03T00:04:34.367Z,59.50
2019-04-03T00:05:33.729Z,59.53
2019-04-03T00:06:33.572Z,59.83
2019-04-03T00:07:33.777Z,60.03
2019-04-03T00:08:36.115Z,59.70
2019-04-03T00:09:35.889Z,59.42
2019-04-03T00:10:33.283Z,59.73
2019-04-03T00:11:33.271Z,60.11
2019-04-03T00:12:33.285Z,59.73
2019-04-03T00:13:33.249Z,59.63
2019-04-03T00:14:33.237Z,59.63
2019-04-03T00:15:33.232Z,59.60
2019-04-03T00:16:33.215Z,59.94
2019-04-03T00:17:33.238Z,59.83
2019-04-03T00:18:33.193Z,59.83
2019-04-03T00:19:33.183Z,60.03
2019-04-03T00:20:33.171Z,60.44
2019-04-03T00:21:33.269Z,60.55
2019-04-03T00:22:33.302Z,60.44
2019-04-03T00:23:33.164Z,60.35
2019-04-03T00:24:33.124Z,60.44
2019-04-03T00:25:33.205Z,60.14
2019-04-03T00:26:33.103Z,60.35
2019-04-03T00:27:33.117Z,60.44
2019-04-03T00:28:33.220Z,60.14
2019-04-03T00:29:33.069Z,60.44
2019-04-03T00:30:33.062Z,60.96
2019-04-03T00:31:33.050Z,60.75
2019-04-03T00:32:33.035Z,60.44
2019-04-03T00:33:33.061Z,60.85
2019-04-03T00:34:33.057Z,60.35
2019-04-03T00:35:33.002Z,60.35
2019-04-03T00:36:32.993Z,60.75
2019-04-03T00:37:32.981Z,61.06
2019-04-03T00:38:32.971Z,61.06
2019-04-03T00:39:33.032Z,61.09
2019-04-03T00:40:32.952Z,61.06
2019-04-03T00:41:32.939Z,60.88
2019-04-03T00:42:32.924Z,60.47
2019-04-03T00:43:32.915Z,60.68
2019-04-03T00:44:32.929Z,60.75
2019-04-03T00:45:32.891Z,60.58
2019-04-03T00:46:32.881Z,60.75
2019-04-03T00:47:32.871Z,61.40
2019-04-03T00:48:32.986Z,61.29
2019-04-03T00:49:32.885Z,61.29
2019-04-03T00:50:32.835Z,60.55
2019-04-03T00:51:32.826Z,61.16
2019-04-03T00:52:32.814Z,61.26
2019-04-03T00:53:32.829Z,61.26
2019-04-03T00:54:32.791Z,60.55
2019-04-03T00:55:32.807Z,61.06
2019-04-03T00:56:32.773Z,60.35
2019-04-03T00:57:32.760Z,61.06
2019-04-03T00:58:32.755Z,61.36
2019-04-03T00:59:32.737Z,61.16
2019-04-03T01:00:32.751Z,61.47
2019-04-03T01:01:32.716Z,61.26
2019-04-03T01:02:32.733Z,61.36
2019-04-03T01:03:32.696Z,61.36
2019-04-03T01:04:32.681Z,61.67
2019-04-03T01:05:32.722Z,61.09
2019-04-03T01:06:32.661Z,61.16
2019-04-03T01:07:32.649Z,61.09
2019-04-03T01:08:32.785Z,61.50
2019-04-03T01:09:32.629Z,61.50
2019-04-03T01:10:32.642Z,61.47
2019-04-03T01:11:32.605Z,61.47
2019-04-03T01:12:32.610Z,61.36
2019-04-03T01:13:32.583Z,61.57
2019-04-03T01:14:32.634Z,61.36
2019-04-03T01:15:32.598Z,61.26
2019-04-03T01:16:33.305Z,61.26
2019-04-03T01:17:34.133Z,61.06
2019-04-03T01:18:34.244Z,61.36
2019-04-03T01:19:32.521Z,61.16
2019-04-03T01:20:32.511Z,61.16
2019-04-03T01:21:32.522Z,61.06
2019-04-03T01:22:32.580Z,61.26
2019-04-03T01:23:32.544Z,61.16
2019-04-03T01:24:32.465Z,60.96
2019-04-03T01:25:32.453Z,61.36
2019-04-03T01:26:32.478Z,60.96
2019-04-03T01:27:32.430Z,61.06
2019-04-03T01:28:32.419Z,61.57
2019-04-03T01:29:32.409Z,61.26
2019-04-03T01:30:32.512Z,61.06
2019-04-03T01:31:32.423Z,61.06
2019-04-03T01:32:32.377Z,61.29
2019-04-03T01:33:32.395Z,61.40
2019-04-03T01:34:32.358Z,62.01
2019-04-03T01:35:32.344Z,61.70
2019-04-03T01:36:32.369Z,62.32
2019-04-03T01:37:32.347Z,61.80
2019-04-03T01:38:32.311Z,62.32
2019-04-03T01:39:32.331Z,62.11
2019-04-03T01:40:32.288Z,62.62
2019-04-03T01:41:32.369Z,62.52
2019-04-03T01:42:32.289Z,62.62
2019-04-03T01:43:32.289Z,62.62
2019-04-03T01:44:32.244Z,62.42
2019-04-03T01:45:32.233Z,62.32
2019-04-03T01:46:32.221Z,62.62
2019-04-03T01:47:32.246Z,62.52
2019-04-03T01:48:32.199Z,62.32
2019-04-03T01:49:32.200Z,62.52
2019-04-03T01:50:32.177Z,63.03
2019-04-03T01:51:32.166Z,62.21
2019-04-03T01:52:32.376Z,62.42
2019-04-03T01:53:32.788Z,62.32
2019-04-03T01:54:33.691Z,62.73
2019-04-03T01:55:34.088Z,62.96
2019-04-03T01:56:32.111Z,63.17
2019-04-03T01:57:32.100Z,63.17
2019-04-03T01:58:32.113Z,62.65
2019-04-03T01:59:32.077Z,62.96
2019-04-03T02:00:32.070Z,63.17
2019-04-03T02:01:32.057Z,63.17
2019-04-03T02:02:32.048Z,63.26
2019-04-03T02:03:32.070Z,63.06
2019-04-03T02:04:32.022Z,63.09
2019-04-03T02:05:32.012Z,63.06
2019-04-03T02:06:32.000Z,63.17
2019-04-03T02:07:31.988Z,63.68
2019-04-03T02:08:31.978Z,63.26
2019-04-03T02:09:31.989Z,63.20
2019-04-03T02:10:32.033Z,63.26
2019-04-03T02:11:31.944Z,63.09
2019-04-03T02:12:31.949Z,63.40
2019-04-03T02:13:31.921Z,63.70
2019-04-03T02:14:32.051Z,63.60
2019-04-03T02:15:31.897Z,63.81
2019-04-03T02:16:31.887Z,63.70
2019-04-03T02:17:31.878Z,63.81
2019-04-03T02:18:31.870Z,63.20
2019-04-03T02:19:31.889Z,62.99
2019-04-03T02:20:31.849Z,63.70
2019-04-03T02:21:31.831Z,63.60
2019-04-03T02:22:31.820Z,63.70
2019-04-03T02:23:31.809Z,63.68
2019-04-03T02:24:32.189Z,63.50
2019-04-03T02:25:32.257Z,63.60
2019-04-03T02:26:32.721Z,63.60
2019-04-03T02:27:33.278Z,62.99
2019-04-03T02:28:34.160Z,64.42
2019-04-03T02:29:31.743Z,62.99
2019-04-03T02:30:31.755Z,63.81
2019-04-03T02:31:31.731Z,63.37
2019-04-03T02:32:31.709Z,63.57
2019-04-03T02:33:31.734Z,63.40
2019-04-03T02:34:34.440Z,63.60
2019-04-03T02:35:31.703Z,63.60
2019-04-03T02:36:31.673Z,63.57
2019-04-03T02:37:31.778Z,63.50
2019-04-03T02:38:31.643Z,64.29
2019-04-03T02:39:31.640Z,63.09
2019-04-03T02:40:33.058Z,62.88
2019-04-03T02:41:35.395Z,63.60
2019-04-03T02:42:31.709Z,63.91
2019-04-03T02:43:31.595Z,64.50
2019-04-03T02:44:31.576Z,64.01
2019-04-03T02:45:31.615Z,63.78
2019-04-03T02:46:31.560Z,63.20
2019-04-03T02:47:33.517Z,64.53
2019-04-03T02:48:31.531Z,64.62
2019-04-03T02:49:31.520Z,64.53
2019-04-03T02:50:31.547Z,64.53
2019-04-03T02:51:31.534Z,64.01
2019-04-03T02:52:31.491Z,64.22
2019-04-03T02:53:31.475Z,64.32
2019-04-03T02:54:34.560Z,63.91
2019-04-03T02:55:31.457Z,64.01
2019-04-03T02:56:31.600Z,63.91
2019-04-03T02:57:31.466Z,64.32
2019-04-03T02:58:31.459Z,64.01
2019-04-03T02:59:31.410Z,64.01
2019-04-03T03:00:33.054Z,64.94
2019-04-03T03:01:31.393Z,64.62
2019-04-03T03:02:31.373Z,64.62
2019-04-03T03:03:31.405Z,64.97
2019-04-03T03:04:31.678Z,65.17
2019-04-03T03:05:31.340Z,65.17
2019-04-03T03:06:32.977Z,65.07
2019-04-03T03:07:35.805Z,65.27
2019-04-03T03:08:31.307Z,65.07
2019-04-03T03:09:31.361Z,64.97
2019-04-03T03:10:31.928Z,64.86
2019-04-03T03:11:31.283Z,65.04
2019-04-03T03:12:31.266Z,64.86
2019-04-03T03:13:33.547Z,64.86
2019-04-03T03:14:31.246Z,65.07
2019-04-03T03:15:31.307Z,65.07
2019-04-03T03:16:31.433Z,65.17
2019-04-03T03:17:31.208Z,65.17
2019-04-03T03:18:31.273Z,65.17
2019-04-03T03:19:33.008Z,65.30
2019-04-03T03:20:31.205Z,65.20
2019-04-03T03:21:31.165Z,65.58
2019-04-03T03:22:31.152Z,65.07
2019-04-03T03:23:31.145Z,65.58
2019-04-03T03:24:31.131Z,65.27
2019-04-03T03:25:33.291Z,65.07
2019-04-03T03:26:31.117Z,65.68
2019-04-03T03:27:31.095Z,65.58
2019-04-03T03:28:31.085Z,65.68
2019-04-03T03:29:31.083Z,65.58
2019-04-03T03:30:41.225Z,65.17
2019-04-03T03:31:59.208Z,65.27
2019-04-03T03:32:35.234Z,65.58
2019-04-03T03:33:36.248Z,65.17
2019-04-03T03:34:47.780Z,65.78
2019-04-03T03:35:40.415Z,65.48
2019-04-03T03:36:32.623Z,65.17
2019-04-03T03:37:34.389Z,65.68
2019-04-03T03:38:30.975Z,65.68
2019-04-03T03:39:30.962Z,65.99
2019-04-03T03:40:30.980Z,65.78
2019-04-03T03:41:30.942Z,66.71
2019-04-03T03:42:32.110Z,66.33
2019-04-03T03:43:31.086Z,66.12
2019-04-03T03:44:30.912Z,66.94
2019-04-03T03:45:30.951Z,66.56
2019-04-03T03:46:30.886Z,66.43
2019-04-03T03:47:32.009Z,66.87
2019-04-03T03:48:30.867Z,67.14
2019-04-03T03:49:31.047Z,66.84
2019-04-03T03:50:30.849Z,66.43
2019-04-03T03:51:31.925Z,66.63
2019-04-03T03:52:31.213Z,67.14
2019-04-03T03:53:30.810Z,66.74
2019-04-03T03:54:30.800Z,66.22
2019-04-03T03:55:31.130Z,66.53
2019-04-03T03:56:31.822Z,66.53
2019-04-03T03:57:31.213Z,66.56
2019-04-03T03:58:30.759Z,66.84
2019-04-03T03:59:30.747Z,66.74
2019-04-03T04:00:30.897Z,67.18
2019-04-03T04:01:31.927Z,67.28
2019-04-03T04:02:30.718Z,67.49
2019-04-03T04:03:30.751Z,68.10
2019-04-03T04:04:30.695Z,68.10
2019-04-03T04:05:30.693Z,67.69
2019-04-03T04:06:34.964Z,67.69
2019-04-03T04:07:35.739Z,67.90
2019-04-03T04:08:31.724Z,67.69
2019-04-03T04:09:30.968Z,67.90
2019-04-03T04:10:35.032Z,68.00
2019-04-03T04:11:32.416Z,67.90
2019-04-03T04:12:30.788Z,68.10
2019-04-03T04:13:30.598Z,67.90
2019-04-03T04:14:30.619Z,68.41
2019-04-03T04:15:31.631Z,67.79
2019-04-03T04:16:30.948Z,67.90
2019-04-03T04:17:30.550Z,68.10
2019-04-03T04:18:30.543Z,67.90
2019-04-03T04:19:31.178Z,67.79
2019-04-03T04:20:30.534Z,68.30
2019-04-03T04:21:30.508Z,67.90
2019-04-03T04:22:30.495Z,68.30
2019-04-03T04:23:30.491Z,68.00
2019-04-03T04:24:30.479Z,68.82
2019-04-03T04:25:31.088Z,68.62
2019-04-03T04:26:31.791Z,68.34
2019-04-03T04:27:33.427Z,68.44
2019-04-03T04:28:30.436Z,68.21
2019-04-03T04:29:30.422Z,68.24
2019-04-03T04:30:30.453Z,68.44
2019-04-03T04:31:30.399Z,68.41
2019-04-03T04:32:30.390Z,68.30
2019-04-03T04:33:30.558Z,68.30
2019-04-03T04:34:30.490Z,68.41
2019-04-03T04:35:30.561Z,68.30
2019-04-03T04:36:30.346Z,68.51
2019-04-03T04:37:30.340Z,68.34
2019-04-03T04:38:30.631Z,68.54
2019-04-03T04:39:30.470Z,68.96
2019-04-03T04:40:31.308Z,68.72
2019-04-03T04:41:32.222Z,69.16
2019-04-03T04:42:30.282Z,68.65
2019-04-03T04:43:30.281Z,68.72
2019-04-03T04:44:30.259Z,68.21
2019-04-03T04:45:32.943Z,68.51
2019-04-03T04:46:30.244Z,68.41
2019-04-03T04:47:30.228Z,68.30
2019-04-03T04:48:30.215Z,68.75
2019-04-03T04:49:30.206Z,68.85
2019-04-03T04:50:30.196Z,69.26
2019-04-03T04:51:30.409Z,68.96
2019-04-03T04:52:30.175Z,69.37
2019-04-03T04:53:30.258Z,69.37
2019-04-03T04:54:31.012Z,68.21
2019-04-03T04:55:31.055Z,68.41
2019-04-03T04:56:30.131Z,68.10
2019-04-03T04:57:30.155Z,68.30
2019-04-03T04:58:57.814Z,68.30
2019-04-03T04:59:30.213Z,68.10
2019-04-03T05:00:30.372Z,68.30
2019-04-03T05:01:30.201Z,68.62
2019-04-03T05:02:30.190Z,68.62
2019-04-03T05:03:30.083Z,68.72
2019-04-03T05:04:30.077Z,68.62
2019-04-03T05:05:31.180Z,68.62
2019-04-03T05:06:30.024Z,68.51
2019-04-03T05:07:30.829Z,68.30
2019-04-03T05:08:32.205Z,68.82
2019-04-03T05:09:30.002Z,68.75
2019-04-03T05:10:29.980Z,68.44
2019-04-03T05:11:29.970Z,68.96
2019-04-03T05:12:29.959Z,69.26
2019-04-03T05:13:30.112Z,68.72
2019-04-03T05:14:29.977Z,69.16
2019-04-03T05:15:29.926Z,69.13
2019-04-03T05:16:30.065Z,69.33
2019-04-03T05:17:29.906Z,69.23
2019-04-03T05:18:29.895Z,68.51
2019-04-03T05:19:29.910Z,68.10
2019-04-03T05:20:29.873Z,68.51
2019-04-03T05:21:29.863Z,68.51
2019-04-03T05:22:29.853Z,68.72
2019-04-03T05:23:29.842Z,68.62
2019-04-03T05:24:29.857Z,68.72
2019-04-03T05:25:30.432Z,68.62
2019-04-03T05:26:31.929Z,68.21
2019-04-03T05:27:30.043Z,68.41
2019-04-03T05:28:29.802Z,68.72
2019-04-03T05:29:29.815Z,68.48
2019-04-03T05:30:29.989Z,68.38
2019-04-03T05:31:29.793Z,68.68
2019-04-03T05:32:29.768Z,68.72
2019-04-03T05:33:29.736Z,67.86
2019-04-03T05:34:29.724Z,67.76
2019-04-03T05:35:29.910Z,67.76
2019-04-03T05:36:29.707Z,67.66
2019-04-03T05:37:29.690Z,67.56
2019-04-03T05:38:29.843Z,67.46
2019-04-03T05:39:29.685Z,67.66
2019-04-03T05:40:29.683Z,67.56
2019-04-03T05:41:29.648Z,67.76
2019-04-03T05:42:29.638Z,67.76
2019-04-03T05:43:31.097Z,67.86
2019-04-03T05:44:31.066Z,68.07
2019-04-03T05:45:29.632Z,68.68
2019-04-03T05:46:29.592Z,68.27
2019-04-03T05:47:29.585Z,67.86
2019-04-03T05:48:29.575Z,67.97
2019-04-03T05:49:29.621Z,67.46
2019-04-03T05:50:29.577Z,67.25
2019-04-03T05:51:30.297Z,67.14
2019-04-03T05:52:29.530Z,66.84
2019-04-03T05:53:29.518Z,66.53
2019-04-03T05:54:29.507Z,67.25
2019-04-03T05:55:29.738Z,67.66
2019-04-03T05:56:29.562Z,67.86
2019-04-03T05:57:29.658Z,67.90
2019-04-03T05:58:29.532Z,68.07
2019-04-03T05:59:32.734Z,67.59
2019-04-03T06:00:29.525Z,67.25
2019-04-03T06:01:29.470Z,68.07
2019-04-03T06:02:29.448Z,68.10
2019-04-03T06:03:40.410Z,67.35
2019-04-03T06:04:30.419Z,67.46
2019-04-03T06:05:29.391Z,67.56
2019-04-03T06:06:29.389Z,67.76
2019-04-03T06:07:29.405Z,67.56
2019-04-03T06:08:29.357Z,67.56
2019-04-03T06:09:29.358Z,67.14
2019-04-03T06:10:31.639Z,66.81
2019-04-03T06:11:29.327Z,67.02
2019-04-03T06:12:29.586Z,66.91
2019-04-03T06:13:29.339Z,66.09
2019-04-03T06:14:29.292Z,66.37
2019-04-03T06:15:29.508Z,66.50
2019-04-03T06:16:29.273Z,66.19
2019-04-03T06:17:29.258Z,66.19
2019-04-03T06:18:31.668Z,66.50
2019-04-03T06:19:29.295Z,66.27
2019-04-03T06:20:29.225Z,66.47
2019-04-03T06:21:29.215Z,66.57
2019-04-03T06:22:29.285Z,66.16
2019-04-03T06:23:29.194Z,65.11
2019-04-03T06:24:29.205Z,65.04
2019-04-03T06:25:30.611Z,64.73
2019-04-03T06:26:29.157Z,65.04
2019-04-03T06:27:29.149Z,65.04
2019-04-03T06:28:29.136Z,64.70
2019-04-03T06:29:29.198Z,65.01
2019-04-03T06:30:29.320Z,64.70
2019-04-03T06:31:29.104Z,64.80
2019-04-03T06:32:29.788Z,64.50
2019-04-03T06:33:31.449Z,64.50
2019-04-03T06:34:29.072Z,64.29
2019-04-03T06:35:29.351Z,64.70
2019-04-03T06:36:29.244Z,64.26
2019-04-03T06:37:29.037Z,64.26
2019-04-03T06:38:29.035Z,64.47
2019-04-03T06:39:31.525Z,63.75
2019-04-03T06:40:29.029Z,63.51
2019-04-03T06:41:29.009Z,63.10
2019-04-03T06:42:28.991Z,62.80
2019-04-03T06:43:30.450Z,62.90
2019-04-03T06:44:29.010Z,63.10
2019-04-03T06:45:28.975Z,63.10
2019-04-03T06:46:29.875Z,63.51
2019-04-03T06:47:30.063Z,63.00
2019-04-03T06:48:28.923Z,63.41
2019-04-03T06:49:28.906Z,63.18
2019-04-03T06:50:29.050Z,63.07
2019-04-03T06:51:28.903Z,62.29
2019-04-03T06:52:28.878Z,62.66
2019-04-03T06:53:29.165Z,62.57
2019-04-03T06:54:31.198Z,62.16
2019-04-03T06:55:29.036Z,61.85
2019-04-03T06:56:28.830Z,61.75
2019-04-03T06:57:28.820Z,61.72
2019-04-03T06:58:37.290Z,62.23
2019-04-03T06:59:29.798Z,61.95
2019-04-03T07:00:28.885Z,62.43
2019-04-03T07:01:28.805Z,61.92
2019-04-03T07:02:31.410Z,62.23
2019-04-03T07:03:28.753Z,60.90
2019-04-03T07:04:28.742Z,60.60
2019-04-03T07:05:28.733Z,60.60
2019-04-03T07:06:28.898Z,60.90
2019-04-03T07:07:34.218Z,60.90
2019-04-03T07:08:34.939Z,60.49
2019-04-03T07:09:35.599Z,60.60
2019-04-03T07:10:29.677Z,60.26
2019-04-03T07:11:28.669Z,60.77
2019-04-03T07:12:28.784Z,60.26
2019-04-03T07:13:29.985Z,60.64
2019-04-03T07:14:28.890Z,59.64
2019-04-03T07:15:28.622Z,59.41
2019-04-03T07:16:29.207Z,60.03
2019-04-03T07:17:31.501Z,59.21
2019-04-03T07:18:28.589Z,59.21
2019-04-03T07:19:28.819Z,59.28
2019-04-03T07:20:28.661Z,59.18
2019-04-03T07:21:28.576Z,59.18
2019-04-03T07:22:28.698Z,59.18
2019-04-03T07:23:29.929Z,59.39
2019-04-03T07:24:31.516Z,58.44
2019-04-03T07:25:28.514Z,58.26
2019-04-03T07:26:28.556Z,59.16
2019-04-03T07:27:28.718Z,58.34
2019-04-03T07:28:30.430Z,58.95
2019-04-03T07:29:28.514Z,59.16
2019-04-03T07:30:28.458Z,59.26
2019-04-03T07:31:28.524Z,59.64
2019-04-03T07:32:28.437Z,58.01
2019-04-03T07:33:29.323Z,57.70
2019-04-03T07:34:28.608Z,57.90
2019-04-03T07:35:28.403Z,57.60
2019-04-03T07:36:28.392Z,57.26
2019-04-03T07:37:28.421Z,57.67
2019-04-03T07:38:28.864Z,56.65
2019-04-03T07:39:28.423Z,56.32
2019-04-03T07:40:28.406Z,57.44
2019-04-03T07:41:28.351Z,57.65
2019-04-03T07:42:28.327Z,56.63
2019-04-03T07:43:28.316Z,56.42
2019-04-03T07:44:29.808Z,56.20
2019-04-03T07:45:28.317Z,55.89
2019-04-03T07:46:28.285Z,56.20
2019-04-03T07:47:28.270Z,55.99
2019-04-03T07:48:28.354Z,54.66
2019-04-03T07:49:28.251Z,55.48
2019-04-03T07:50:28.266Z,55.46
2019-04-03T07:51:28.227Z,54.66
2019-04-03T07:52:28.305Z,54.64
2019-04-03T07:53:28.207Z,55.15
2019-04-03T07:54:28.199Z,54.33
2019-04-03T07:55:28.904Z,54.21
2019-04-03T07:56:28.172Z,53.63
2019-04-03T07:57:29.255Z,54.11
2019-04-03T07:58:30.649Z,54.00
2019-04-03T07:59:28.276Z,53.59
2019-04-03T08:00:28.129Z,54.00
2019-04-03T08:01:28.165Z,53.19
2019-04-03T08:02:28.127Z,53.70
2019-04-03T08:03:28.095Z,52.56
2019-04-03T08:04:28.086Z,54.18
2019-04-03T08:05:30.350Z,52.96
2019-04-03T08:06:28.065Z,53.06
2019-04-03T08:07:28.079Z,53.67
2019-04-03T08:08:28.045Z,53.06
2019-04-03T08:09:28.038Z,52.45
2019-04-03T08:10:30.241Z,52.56
2019-04-03T08:11:28.084Z,52.43
2019-04-03T08:12:28.023Z,52.94
2019-04-03T08:13:27.993Z,52.03
2019-04-03T08:14:28.104Z,53.55
2019-04-03T08:15:27.966Z,52.94
2019-04-03T08:16:27.960Z,52.84
2019-04-03T08:17:28.026Z,52.94
2019-04-03T08:18:27.932Z,52.00
2019-04-03T08:19:27.933Z,52.33
2019-04-03T08:20:30.458Z,52.00
2019-04-03T08:21:29.855Z,52.40
2019-04-03T08:22:27.889Z,51.90
2019-04-03T08:23:27.914Z,52.30
2019-04-03T08:24:27.949Z,52.00
2019-04-03T08:25:27.855Z,51.87
2019-04-03T08:26:27.915Z,51.98
2019-04-03T08:27:27.880Z,51.67
2019-04-03T08:28:29.903Z,51.85
2019-04-03T08:29:28.120Z,52.25
2019-04-03T08:30:27.806Z,51.46
2019-04-03T08:31:27.794Z,51.16
2019-04-03T08:32:27.779Z,51.57
2019-04-03T08:33:28.209Z,51.77
2019-04-03T08:34:30.732Z,52.38
2019-04-03T08:35:27.745Z,51.67
2019-04-03T08:36:27.734Z,52.05
2019-04-03T08:37:30.885Z,51.65
2019-04-03T08:38:27.730Z,52.15
2019-04-03T08:39:27.798Z,51.85
2019-04-03T08:40:27.747Z,50.51
2019-04-03T08:41:27.679Z,50.53
2019-04-03T08:42:28.620Z,50.51
2019-04-03T08:43:27.703Z,50.31
2019-04-03T08:44:27.651Z,49.80
2019-04-03T08:45:27.668Z,50.10
2019-04-03T08:46:27.624Z,49.98
2019-04-03T08:47:27.615Z,49.37
2019-04-03T08:48:27.603Z,49.29
2019-04-03T08:49:27.594Z,49.39
2019-04-03T08:50:28.813Z,49.16
2019-04-03T08:51:27.571Z,48.86
2019-04-03T08:52:27.569Z,49.06
2019-04-03T08:53:27.828Z,48.96
2019-04-03T08:54:27.544Z,49.77
2019-04-03T08:55:27.569Z,49.27
2019-04-03T08:56:27.521Z,50.00
2019-04-03T08:57:27.507Z,49.39
2019-04-03T08:58:27.758Z,49.41
2019-04-03T08:59:28.717Z,49.29
2019-04-03T09:00:27.476Z,49.39
2019-04-03T09:01:27.693Z,49.08
2019-04-03T09:02:27.457Z,49.27
2019-04-03T09:03:27.443Z,49.29
2019-04-03T09:04:27.431Z,48.99
2019-04-03T09:05:27.421Z,49.16
2019-04-03T09:06:27.449Z,49.16
2019-04-03T09:07:27.398Z,49.29
2019-04-03T09:08:27.387Z,49.57
2019-04-03T09:09:29.885Z,49.16
2019-04-03T09:10:27.367Z,48.96
2019-04-03T09:11:27.783Z,48.23
2019-04-03T09:12:27.605Z,48.33
2019-04-03T09:13:27.576Z,48.54
2019-04-03T09:14:27.333Z,48.41
2019-04-03T09:15:28.246Z,47.90
2019-04-03T09:16:28.792Z,47.60
2019-04-03T09:17:27.317Z,48.08
2019-04-03T09:18:29.912Z,47.67
2019-04-03T09:19:27.278Z,47.78
2019-04-03T09:20:27.260Z,46.97
2019-04-03T09:21:27.275Z,46.56
2019-04-03T09:22:27.308Z,46.67
2019-04-03T09:23:27.227Z,46.67
2019-04-03T09:24:29.378Z,48.39
2019-04-03T09:25:27.269Z,48.16
2019-04-03T09:26:27.189Z,46.75
2019-04-03T09:27:27.338Z,47.13
2019-04-03T09:28:27.409Z,46.84
2019-04-03T09:29:27.391Z,47.17
2019-04-03T09:30:27.203Z,47.05
2019-04-03T09:31:27.263Z,47.05
2019-04-03T09:32:27.124Z,46.84
2019-04-03T09:33:29.388Z,46.95
2019-04-03T09:34:29.677Z,46.44
2019-04-03T09:35:27.092Z,46.83
2019-04-03T09:36:27.085Z,46.83
2019-04-03T09:37:27.070Z,47.43
2019-04-03T09:38:27.058Z,46.52
2019-04-03T09:39:27.266Z,47.81
2019-04-03T09:40:27.037Z,46.91
2019-04-03T09:41:27.289Z,45.69
2019-04-03T09:42:27.022Z,46.17
2019-04-03T09:43:27.006Z,45.97
2019-04-03T09:44:27.015Z,44.66
2019-04-03T09:45:28.301Z,44.96
2019-04-03T09:46:26.971Z,44.35
2019-04-03T09:47:27.234Z,44.86
2019-04-03T09:48:26.948Z,44.96
2019-04-03T09:49:26.997Z,44.86
2019-04-03T09:50:26.981Z,43.63
2019-04-03T09:51:26.966Z,43.44
2019-04-03T09:52:38.346Z,44.15
2019-04-03T09:53:27.891Z,43.85
2019-04-03T09:54:28.343Z,43.65
2019-04-03T09:55:27.043Z,44.66
2019-04-03T09:56:26.861Z,45.06
2019-04-03T09:57:26.849Z,43.95
2019-04-03T09:58:26.838Z,44.25
2019-04-03T09:59:26.844Z,44.25
2019-04-03T10:00:27.165Z,43.85
2019-04-03T10:01:26.806Z,43.95
2019-04-03T10:02:26.793Z,43.75
2019-04-03T10:03:27.052Z,43.95
2019-04-03T10:04:26.889Z,44.35
2019-04-03T10:05:28.954Z,44.35
2019-04-03T10:06:26.754Z,44.43
2019-04-03T10:07:26.741Z,44.03
2019-04-03T10:08:27.055Z,44.23
2019-04-03T10:09:26.724Z,44.13
2019-04-03T10:10:26.842Z,44.01
2019-04-03T10:11:26.897Z,44.21
2019-04-03T10:12:26.948Z,43.51
2019-04-03T10:13:26.862Z,43.59
2019-04-03T10:14:28.118Z,42.98
2019-04-03T10:15:26.693Z,43.16
2019-04-03T10:16:26.644Z,42.35
2019-04-03T10:17:26.681Z,41.95
2019-04-03T10:18:26.618Z,42.35
2019-04-03T10:19:26.607Z,42.55
2019-04-03T10:20:26.623Z,42.33
2019-04-03T10:21:33.815Z,41.53
2019-04-03T10:22:26.577Z,40.52
2019-04-03T10:23:28.781Z,41.83
2019-04-03T10:24:26.685Z,41.83
2019-04-03T10:25:26.568Z,41.02
2019-04-03T10:26:26.533Z,41.00
2019-04-03T10:27:26.714Z,41.00
2019-04-03T10:28:26.510Z,39.92
2019-04-03T10:29:26.501Z,40.92
2019-04-03T10:30:26.529Z,40.72
2019-04-03T10:31:26.489Z,40.84
2019-04-03T10:32:27.716Z,41.06
2019-04-03T10:33:26.508Z,41.06
2019-04-03T10:34:26.447Z,41.05
2019-04-03T10:35:26.434Z,41.14
2019-04-03T10:36:26.448Z,41.13
2019-04-03T10:37:26.573Z,40.74
2019-04-03T10:38:26.402Z,40.72
2019-04-03T10:39:26.598Z,39.92
2019-04-03T10:40:26.422Z,40.91
2019-04-03T10:41:28.382Z,40.52
2019-04-03T10:42:26.359Z,40.00
2019-04-03T10:43:26.346Z,39.68
2019-04-03T10:44:26.420Z,39.68
2019-04-03T10:45:26.659Z,40.08
2019-04-03T10:46:26.411Z,39.76
2019-04-03T10:47:39.389Z,39.56
2019-04-03T10:48:28.196Z,40.04
2019-04-03T10:49:26.282Z,40.04
2019-04-03T10:50:26.346Z,38.65
2019-04-03T10:51:26.298Z,38.75
2019-04-03T10:52:26.283Z,38.73
2019-04-03T10:53:26.506Z,39.65
2019-04-03T10:54:26.227Z,39.15
2019-04-03T10:55:28.409Z,39.15
2019-04-03T10:56:26.204Z,39.03
2019-04-03T10:57:26.482Z,39.54
2019-04-03T10:58:26.210Z,39.54
2019-04-03T10:59:26.173Z,39.76
2019-04-03T11:00:28.852Z,39.84
2019-04-03T11:01:26.161Z,38.64
2019-04-03T11:02:26.486Z,38.53
2019-04-03T11:03:26.807Z,39.62
2019-04-03T11:04:26.231Z,38.71
2019-04-03T11:05:26.109Z,38.49
2019-04-03T11:06:26.098Z,37.67
2019-04-03T11:07:26.090Z,37.87
2019-04-03T11:08:26.075Z,36.75
2019-04-03T11:09:26.103Z,37.63
2019-04-03T11:10:26.286Z,36.11
2019-04-03T11:11:27.222Z,36.23
2019-04-03T11:12:26.031Z,37.15
2019-04-03T11:13:26.019Z,36.43
2019-04-03T11:14:26.013Z,37.32
2019-04-03T11:15:26.022Z,36.10
2019-04-03T11:16:26.224Z,36.52
2019-04-03T11:17:26.119Z,36.32
2019-04-03T11:18:25.969Z,36.40
2019-04-03T11:19:25.954Z,36.48
2019-04-03T11:20:26.177Z,35.93
2019-04-03T11:21:25.933Z,35.14
2019-04-03T11:22:25.924Z,35.13
2019-04-03T11:23:38.264Z,34.71
2019-04-03T11:24:26.907Z,34.61
2019-04-03T11:25:25.993Z,33.38
2019-04-03T11:26:26.036Z,33.54
2019-04-03T11:27:40.406Z,33.23
2019-04-03T11:28:26.857Z,31.89
2019-04-03T11:29:26.145Z,31.87
2019-04-03T11:30:25.994Z,31.97
2019-04-03T11:31:28.756Z,31.18
2019-04-03T11:32:26.111Z,32.73
2019-04-03T11:33:25.802Z,33.16
2019-04-03T11:34:25.837Z,33.43
2019-04-03T11:35:25.972Z,33.23
2019-04-03T11:36:29.963Z,32.71
2019-04-03T11:37:25.761Z,31.90
2019-04-03T11:38:28.262Z,32.10
2019-04-03T11:39:25.738Z,31.99
2019-04-03T11:40:26.047Z,32.20
2019-04-03T11:41:25.851Z,32.02
2019-04-03T11:42:29.248Z,32.62
2019-04-03T11:43:25.733Z,32.63
2019-04-03T11:44:25.694Z,33.04
2019-04-03T11:45:26.039Z,33.03
2019-04-03T11:46:25.712Z,33.33
2019-04-03T11:47:25.735Z,32.92
2019-04-03T11:48:27.303Z,33.23
2019-04-03T11:49:25.636Z,33.43
2019-04-03T11:50:25.874Z,33.72
2019-04-03T11:51:28.987Z,31.81
2019-04-03T11:52:25.601Z,31.90
2019-04-03T11:53:25.919Z,32.18
2019-04-03T11:54:25.587Z,32.18
2019-04-03T11:55:25.707Z,32.17
2019-04-03T11:56:25.566Z,30.63
2019-04-03T11:57:27.197Z,30.21
2019-04-03T11:58:25.564Z,28.99
2019-04-03T11:59:25.987Z,28.85
2019-04-03T12:00:25.520Z,28.14
2019-04-03T12:01:25.520Z,27.88
2019-04-03T12:02:25.494Z,29.11
2019-04-03T12:03:25.513Z,29.63
2019-04-03T12:04:25.815Z,29.85
2019-04-03T12:05:25.463Z,30.48
2019-04-03T12:06:25.462Z,30.66
2019-04-03T12:07:25.585Z,30.24
2019-04-03T12:08:25.941Z,29.35
2019-04-03T12:09:33.790Z,29.74
2019-04-03T12:10:32.790Z,30.13
2019-04-03T12:11:25.452Z,29.51
2019-04-03T12:12:25.394Z,29.13
2019-04-03T12:13:25.419Z,28.42
2019-04-03T12:14:25.369Z,28.19
2019-04-03T12:15:25.360Z,27.28
2019-04-03T12:16:26.221Z,28.46
2019-04-03T12:17:26.848Z,27.17
2019-04-03T12:18:46.453Z,28.38
2019-04-03T12:19:25.324Z,28.30
2019-04-03T12:20:25.309Z,28.59
2019-04-03T12:21:25.415Z,28.08
2019-04-03T12:22:25.285Z,27.58
2019-04-03T12:23:26.798Z,27.06
2019-04-03T12:24:25.290Z,28.29
2019-04-03T12:25:25.377Z,28.32
2019-04-03T12:26:25.362Z,29.22
2019-04-03T12:27:25.233Z,29.13
2019-04-03T12:28:25.221Z,29.24
2019-04-03T12:29:25.298Z,29.77
2019-04-03T12:30:26.849Z,30.68
2019-04-03T12:31:25.588Z,30.31
2019-04-03T12:32:36.568Z,30.82
2019-04-03T12:33:26.571Z,32.42
2019-04-03T12:34:25.159Z,31.82
2019-04-03T12:35:25.173Z,32.22
2019-04-03T12:36:27.035Z,32.40
2019-04-03T12:37:25.721Z,30.99
2019-04-03T12:38:25.115Z,31.49
2019-04-03T12:39:26.963Z,30.59
2019-04-03T12:40:25.120Z,30.69
2019-04-03T12:41:27.185Z,31.62
2019-04-03T12:42:25.070Z,31.82
2019-04-03T12:43:25.060Z,32.23
2019-04-03T12:44:25.377Z,32.68
2019-04-03T12:45:26.906Z,32.89
2019-04-03T12:46:25.238Z,33.80
2019-04-03T12:47:27.815Z,34.11
2019-04-03T12:48:27.759Z,33.51
2019-04-03T12:49:25.003Z,33.41
2019-04-03T12:50:27.555Z,33.09
2019-04-03T12:51:25.381Z,33.08
2019-04-03T12:52:25.282Z,33.08